Time;durP1;ratioP1;P1;durP2;ratioP2;P2;SDS_P1;SDS_P2;PMS_P1;PMS_P2;Temp;Humidity;BMP_temperature;BMP_pressure;BME280_temperature;BME280_humidity;BME280_pressure;Samples;Min_cycle;Max_cycle;Signal;HPM_P1;HPM_P2
2023/08/26 00:00:16;;;;;;;5.30;3.10;;;21.20;99.90;;;;;;5076647;28;20449;-84
2023/08/26 00:03:02;;;;;;;10.83;3.93;;;21.20;99.90;;;;;;5074101;28;20472;-84
2023/08/26 00:05:50;;;;;;;7.67;3.60;;;21.20;99.90;;;;;;5082145;28;20515;-84
2023/08/26 00:08:35;;;;;;;6.10;3.87;;;21.20;99.90;;;;;;5076882;28;20466;-84
2023/08/26 00:11:23;;;;;;;6.33;3.53;;;21.30;99.90;;;;;;5076352;28;20485;-84
2023/08/26 00:14:08;;;;;;;6.37;3.47;;;21.40;99.90;;;;;;5082141;28;20488;-84
2023/08/26 00:16:54;;;;;;;8.07;4.20;;;21.30;99.90;;;;;;5074475;28;20476;-84
2023/08/26 00:19:39;;;;;;;4.43;3.27;;;21.40;99.90;;;;;;5074860;28;20441;-84
2023/08/26 00:22:25;;;;;;;21.37;3.97;;;21.40;99.90;;;;;;5079875;28;20505;-85
2023/08/26 00:25:11;;;;;;;8.53;3.43;;;21.30;99.90;;;;;;5074395;28;20646;-84
2023/08/26 00:27:58;;;;;;;5.27;3.70;;;21.30;99.90;;;;;;5077979;28;20436;-84
2023/08/26 00:30:44;;;;;;;6.50;3.20;;;21.30;99.90;;;;;;5081713;28;20488;-84
2023/08/26 00:33:29;;;;;;;5.00;3.40;;;21.20;99.90;;;;;;5078830;28;20525;-85
2023/08/26 00:36:15;;;;;;;11.00;3.70;;;21.30;99.90;;;;;;5079532;28;20454;-84
2023/08/26 00:39:01;;;;;;;5.33;3.63;;;21.10;99.90;;;;;;5078526;28;20457;-83
2023/08/26 00:41:47;;;;;;;5.23;3.70;;;21.10;99.90;;;;;;5082192;28;20473;-84
2023/08/26 00:44:34;;;;;;;7.60;3.87;;;21.00;99.90;;;;;;5055671;22;1132750;-71
2023/08/26 00:47:20;;;;;;;8.33;3.30;;;20.90;99.90;;;;;;5078429;28;20204;-72
2023/08/26 00:50:06;;;;;;;13.93;4.00;;;21.00;99.90;;;;;;5082620;28;21000;-71
2023/08/26 00:52:52;;;;;;;6.43;3.27;;;20.90;99.90;;;;;;5075779;28;20844;-71
2023/08/26 00:55:40;;;;;;;8.37;3.90;;;21.00;99.90;;;;;;5085012;28;20453;-71
2023/08/26 00:58:27;;;;;;;9.23;3.47;;;21.10;99.90;;;;;;5076685;28;20558;-71
2023/08/26 01:01:14;;;;;;;6.87;3.43;;;21.10;99.90;;;;;;5082539;28;20587;-71
2023/08/26 01:04:00;;;;;;;5.87;3.60;;;21.00;99.90;;;;;;5078031;28;20957;-71
2023/08/26 01:06:46;;;;;;;5.47;3.43;;;21.00;99.90;;;;;;5079713;28;20546;-71
2023/08/26 01:09:31;;;;;;;6.70;3.30;;;21.00;99.90;;;;;;5075964;28;20899;-71
2023/08/26 01:12:30;;;;;;;7.40;3.80;;;21.10;99.90;;;;;;5073511;28;20802;-71
2023/08/26 01:15:16;;;;;;;6.00;3.80;;;21.10;99.90;;;;;;5075869;28;20942;-71
2023/08/26 01:18:05;;;;;;;9.30;4.27;;;21.00;99.90;;;;;;5078200;28;20423;-71
2023/08/26 01:20:51;;;;;;;6.57;3.90;;;21.00;99.90;;;;;;5078958;28;20535;-71
2023/08/26 01:23:40;;;;;;;13.07;4.60;;;21.10;99.90;;;;;;5077292;28;20445;-71
2023/08/26 01:26:26;;;;;;;8.20;4.20;;;21.10;99.90;;;;;;5079850;28;20484;-71
2023/08/26 01:29:12;;;;;;;8.00;3.97;;;21.00;99.90;;;;;;5078259;28;20587;-72
2023/08/26 01:32:09;;;;;;;5.10;3.90;;;21.00;99.90;;;;;;5081432;28;20613;-71
2023/08/26 01:34:57;;;;;;;8.60;4.27;;;21.00;99.90;;;;;;5077315;28;20442;-71
2023/08/26 01:37:46;;;;;;;4.43;3.50;;;21.00;99.90;;;;;;5081577;28;20420;-71
2023/08/26 01:40:35;;;;;;;5.60;4.23;;;21.10;99.90;;;;;;5075734;28;20469;-71
2023/08/26 01:43:21;;;;;;;5.40;4.60;;;21.10;99.90;;;;;;5072429;28;20981;-72
2023/08/26 01:46:07;;;;;;;17.70;5.17;;;21.10;99.90;;;;;;5079974;28;20453;-71
2023/08/26 01:48:53;;;;;;;10.77;6.33;;;21.10;99.90;;;;;;5075141;28;21005;-71
2023/08/26 01:51:39;;;;;;;6.70;5.63;;;21.20;99.90;;;;;;5076608;28;20420;-71
2023/08/26 01:54:25;;;;;;;13.43;7.17;;;21.20;99.90;;;;;;5077091;28;20493;-70
2023/08/26 01:57:12;;;;;;;12.70;7.87;;;21.10;99.90;;;;;;5074808;28;20408;-71
2023/08/26 01:59:57;;;;;;;16.47;9.27;;;20.90;99.90;;;;;;5080022;28;20627;-71
2023/08/26 02:02:43;;;;;;;14.10;8.90;;;21.00;99.90;;;;;;5078752;28;20496;-71
2023/08/26 02:05:28;;;;;;;24.93;9.03;;;21.00;99.90;;;;;;5082643;28;20443;-71
2023/08/26 02:08:14;;;;;;;9.87;8.87;;;21.10;99.90;;;;;;5080103;28;20442;-71
2023/08/26 02:11:00;;;;;;;12.93;7.60;;;21.20;99.90;;;;;;5084452;28;20443;-71
2023/08/26 02:13:47;;;;;;;14.73;8.70;;;21.20;99.90;;;;;;5077770;28;20530;-71
2023/08/26 02:16:32;;;;;;;12.60;8.70;;;21.30;99.90;;;;;;5078306;28;20975;-71
2023/08/26 02:19:18;;;;;;;10.20;9.10;;;21.30;99.90;;;;;;5076448;28;20965;-71
2023/08/26 02:22:04;;;;;;;13.90;10.30;;;21.30;99.90;;;;;;5077812;28;20456;-71
2023/08/26 02:24:50;;;;;;;11.00;9.83;;;21.30;99.90;;;;;;5075928;28;20448;-72
2023/08/26 02:27:35;;;;;;;11.70;9.00;;;21.30;99.90;;;;;;5082207;28;20547;-71
2023/08/26 02:30:22;;;;;;;11.03;8.47;;;21.30;99.90;;;;;;5077580;28;20460;-71
2023/08/26 02:33:08;;;;;;;15.23;9.77;;;21.30;99.90;;;;;;5074205;28;20952;-71
2023/08/26 02:35:54;;;;;;;13.03;9.30;;;21.40;99.90;;;;;;5083687;28;20508;-71
2023/08/26 02:38:40;;;;;;;22.10;10.80;;;21.40;99.90;;;;;;5075706;28;20442;-71
2023/08/26 02:41:26;;;;;;;14.33;10.23;;;21.30;99.90;;;;;;5074988;28;20814;-71
2023/08/26 02:44:11;;;;;;;19.67;10.27;;;21.20;99.90;;;;;;5073266;28;20453;-71
2023/08/26 02:46:58;;;;;;;14.23;9.93;;;21.20;99.90;;;;;;5078275;28;20449;-71
2023/08/26 02:49:44;;;;;;;17.87;11.13;;;21.30;99.90;;;;;;5074792;28;20435;-71
2023/08/26 02:52:30;;;;;;;18.03;9.83;;;21.30;99.90;;;;;;5074720;28;21488;-71
2023/08/26 02:55:15;;;;;;;13.70;11.03;;;21.20;99.90;;;;;;5074478;28;20428;-71
2023/08/26 02:58:01;;;;;;;19.20;10.43;;;21.20;99.90;;;;;;5082150;28;20491;-72
2023/08/26 03:00:47;;;;;;;14.17;10.47;;;21.20;99.90;;;;;;5078636;28;20476;-71
2023/08/26 03:03:34;;;;;;;12.57;9.50;;;21.10;99.90;;;;;;5075626;28;20443;-71
2023/08/26 03:06:19;;;;;;;17.80;9.47;;;21.00;99.90;;;;;;5077973;28;20453;-71
2023/08/26 03:09:05;;;;;;;14.43;9.77;;;20.90;99.90;;;;;;5076774;28;20487;-71
2023/08/26 03:11:51;;;;;;;11.27;9.97;;;20.90;99.90;;;;;;5076672;28;20441;-72
2023/08/26 03:14:36;;;;;;;18.93;10.40;;;20.90;99.90;;;;;;5075736;28;20462;-72
2023/08/26 03:17:22;;;;;;;12.80;10.27;;;21.00;99.90;;;;;;5075638;28;20456;-71
2023/08/26 03:20:10;;;;;;;13.53;9.33;;;21.00;99.90;;;;;;5074387;28;20486;-71
2023/08/26 03:22:56;;;;;;;16.50;10.93;;;21.00;99.90;;;;;;5079544;28;20514;-71
2023/08/26 03:25:42;;;;;;;16.83;12.00;;;20.90;99.90;;;;;;5074227;28;20444;-71
2023/08/26 03:28:28;;;;;;;14.07;11.20;;;20.80;99.90;;;;;;5077502;28;20460;-72
2023/08/26 03:31:13;;;;;;;18.20;11.87;;;20.80;99.90;;;;;;5086277;28;20445;-71
2023/08/26 03:33:59;;;;;;;14.53;12.73;;;20.80;99.90;;;;;;5074505;28;20588;-71
2023/08/26 03:36:46;;;;;;;19.87;12.03;;;20.80;99.90;;;;;;5079212;28;20490;-71
2023/08/26 03:39:32;;;;;;;16.90;12.73;;;20.80;99.90;;;;;;5074734;28;20523;-71
2023/08/26 03:42:18;;;;;;;26.17;12.53;;;20.90;99.90;;;;;;5077060;28;20504;-71
2023/08/26 03:45:04;;;;;;;20.70;13.23;;;20.90;99.90;;;;;;5077448;28;20961;-71
2023/08/26 03:47:49;;;;;;;15.23;13.53;;;20.90;99.90;;;;;;5077984;28;20530;-71
2023/08/26 03:50:35;;;;;;;16.73;12.33;;;20.70;99.90;;;;;;5075324;28;20457;-71
2023/08/26 03:53:24;;;;;;;20.53;12.90;;;20.80;99.90;;;;;;5075564;28;20579;-71
2023/08/26 03:56:09;;;;;;;17.13;13.17;;;20.80;99.90;;;;;;5075497;28;20460;-71
2023/08/26 03:58:57;;;;;;;14.63;12.13;;;20.70;99.90;;;;;;5074210;28;20821;-71
2023/08/26 04:01:43;;;;;;;13.63;11.50;;;20.80;99.90;;;;;;5077301;28;20522;-71
2023/08/26 04:04:30;;;;;;;15.23;11.87;;;20.70;99.90;;;;;;5078068;28;20419;-71
2023/08/26 04:07:16;;;;;;;15.20;11.20;;;20.70;99.90;;;;;;5083198;28;20453;-71
2023/08/26 04:10:04;;;;;;;19.93;11.80;;;20.70;99.90;;;;;;5078265;28;20821;-71
2023/08/26 04:12:49;;;;;;;16.40;12.00;;;20.70;99.90;;;;;;5079148;28;20445;-71
2023/08/26 04:15:35;;;;;;;15.23;11.10;;;20.70;99.90;;;;;;5084771;28;20510;-71
2023/08/26 04:18:22;;;;;;;15.10;10.67;;;20.70;99.90;;;;;;5084697;28;20958;-72
2023/08/26 04:21:07;;;;;;;15.50;10.57;;;20.80;99.90;;;;;;5081230;28;20563;-71
2023/08/26 04:23:53;;;;;;;17.40;10.20;;;20.70;99.90;;;;;;5076455;28;20463;-71
2023/08/26 04:26:40;;;;;;;17.53;10.30;;;20.70;99.90;;;;;;5082268;28;20453;-71
2023/08/26 04:29:25;;;;;;;13.40;10.57;;;20.60;99.90;;;;;;5075432;28;20469;-71
2023/08/26 04:32:11;;;;;;;16.50;9.33;;;20.40;99.90;;;;;;5079768;28;20415;-71
2023/08/26 04:34:56;;;;;;;16.90;10.93;;;20.50;99.90;;;;;;5078526;28;20606;-71
2023/08/26 04:37:42;;;;;;;16.20;8.90;;;20.50;99.90;;;;;;5072216;28;20497;-71
2023/08/26 04:40:28;;;;;;;23.10;9.70;;;20.40;99.90;;;;;;5074019;28;20459;-72
2023/08/26 04:43:15;;;;;;;12.30;8.60;;;20.30;99.90;;;;;;5081515;28;20456;-71
2023/08/26 04:46:00;;;;;;;14.93;9.17;;;20.30;99.90;;;;;;5080820;28;20416;-72
2023/08/26 04:48:46;;;;;;;14.17;8.63;;;20.40;99.90;;;;;;5078175;28;20417;-71
2023/08/26 04:51:32;;;;;;;17.20;9.70;;;20.30;99.90;;;;;;5077707;28;20489;-71
2023/08/26 04:54:17;;;;;;;13.50;8.90;;;20.30;99.90;;;;;;5074527;28;20449;-71
2023/08/26 04:57:03;;;;;;;13.03;9.17;;;20.10;99.90;;;;;;5076308;28;20434;-71
2023/08/26 04:59:50;;;;;;;18.50;8.20;;;20.10;99.90;;;;;;5078327;28;20627;-71
2023/08/26 05:02:35;;;;;;;15.20;8.93;;;20.10;99.90;;;;;;5079902;28;20439;-71
2023/08/26 05:05:21;;;;;;;11.07;7.90;;;20.00;99.90;;;;;;5079461;28;20420;-71
2023/08/26 05:08:07;;;;;;;9.57;7.60;;;20.00;99.90;;;;;;5083420;28;20480;-71
2023/08/26 05:10:52;;;;;;;11.93;7.60;;;19.90;99.90;;;;;;5077581;28;20444;-71
2023/08/26 05:13:38;;;;;;;9.17;5.93;;;19.90;99.90;;;;;;5078301;28;20457;-71
2023/08/26 05:16:25;;;;;;;7.17;5.20;;;19.80;99.90;;;;;;5078493;28;20518;-71
2023/08/26 05:19:11;;;;;;;9.20;4.97;;;19.70;99.90;;;;;;5079684;28;20451;-71
2023/08/26 05:21:57;;;;;;;9.67;5.13;;;19.60;99.90;;;;;;5079015;28;21023;-71
2023/08/26 05:24:43;;;;;;;7.00;4.53;;;19.60;99.90;;;;;;5078651;28;20490;-71
2023/08/26 05:27:28;;;;;;;11.50;5.23;;;19.50;99.90;;;;;;5078054;28;20421;-71
2023/08/26 05:30:14;;;;;;;9.07;5.03;;;19.50;99.90;;;;;;5076452;28;20508;-71
2023/08/26 05:33:01;;;;;;;13.30;4.50;;;19.60;99.90;;;;;;5077521;28;20859;-71
2023/08/26 05:35:47;;;;;;;7.10;4.70;;;19.60;99.90;;;;;;5079860;28;20798;-71
2023/08/26 05:38:32;;;;;;;7.40;4.43;;;19.70;99.90;;;;;;5077986;28;20453;-71
2023/08/26 05:41:18;;;;;;;6.33;4.10;;;19.70;99.90;;;;;;5078591;28;20478;-71
2023/08/26 05:44:05;;;;;;;7.83;4.83;;;19.70;99.90;;;;;;5078876;28;20898;-71
2023/08/26 05:46:51;;;;;;;8.17;3.90;;;19.70;99.90;;;;;;5081094;28;20585;-71
2023/08/26 05:49:38;;;;;;;7.53;4.53;;;19.70;99.90;;;;;;5074965;28;20594;-73
2023/08/26 05:52:24;;;;;;;7.97;3.80;;;19.60;99.90;;;;;;5082146;28;20453;-72
2023/08/26 05:55:11;;;;;;;12.70;4.40;;;19.60;99.90;;;;;;5077090;28;20445;-71
2023/08/26 05:57:57;;;;;;;6.27;4.07;;;19.60;99.90;;;;;;5077528;28;20479;-70
2023/08/26 06:00:43;;;;;;;7.97;4.63;;;19.60;99.90;;;;;;5078545;28;20546;-72
2023/08/26 06:03:28;;;;;;;9.60;4.00;;;19.60;99.90;;;;;;5078103;28;20922;-72
2023/08/26 06:06:16;;;;;;;8.57;4.10;;;19.60;99.90;;;;;;5084325;28;20598;-71
2023/08/26 06:09:02;;;;;;;7.03;3.37;;;19.70;99.90;;;;;;5075353;28;21006;-72
2023/08/26 06:11:47;;;;;;;8.83;4.17;;;19.60;99.90;;;;;;5079316;28;20474;-73
2023/08/26 06:14:33;;;;;;;11.90;3.60;;;19.50;99.90;;;;;;5078149;28;20437;-73
2023/08/26 06:17:19;;;;;;;7.00;4.37;;;19.40;99.90;;;;;;5083798;28;20519;-70
2023/08/26 06:20:06;;;;;;;12.43;4.50;;;19.40;99.90;;;;;;5077694;28;20470;-72
2023/08/26 06:22:53;;;;;;;7.63;4.47;;;19.50;99.90;;;;;;5076144;28;20470;-71
2023/08/26 06:25:38;;;;;;;4.63;4.00;;;19.40;99.90;;;;;;5076910;28;20464;-72
2023/08/26 06:28:24;;;;;;;11.00;4.47;;;19.60;99.90;;;;;;5082999;28;20948;-72
2023/08/26 06:31:10;;;;;;;9.30;3.90;;;19.60;99.90;;;;;;5083562;28;20456;-70
2023/08/26 06:33:56;;;;;;;7.67;3.80;;;19.70;99.90;;;;;;5080603;28;20448;-70
2023/08/26 06:36:41;;;;;;;33.07;4.07;;;19.70;99.90;;;;;;5076122;28;20845;-71
2023/08/26 06:39:28;;;;;;;11.20;3.97;;;19.80;99.90;;;;;;5077473;28;20477;-72
2023/08/26 06:42:14;;;;;;;7.53;3.53;;;19.80;99.90;;;;;;5079420;28;20670;-72
2023/08/26 06:44:59;;;;;;;9.30;3.60;;;19.90;99.90;;;;;;5077072;28;20430;-70
2023/08/26 06:47:45;;;;;;;7.03;3.20;;;20.00;99.90;;;;;;5078527;28;20448;-73
2023/08/26 06:50:31;;;;;;;7.97;3.90;;;20.10;99.90;;;;;;5075769;28;20472;-72
2023/08/26 06:53:20;;;;;;;6.73;2.73;;;20.20;99.90;;;;;;5078080;28;21068;-73
2023/08/26 06:56:07;;;;;;;8.90;2.80;;;20.20;99.90;;;;;;5077999;28;20446;-71
2023/08/26 06:58:53;;;;;;;10.37;2.83;;;20.10;99.90;;;;;;5077716;28;20611;-72
2023/08/26 07:01:39;;;;;;;4.60;2.73;;;20.10;99.90;;;;;;5076506;28;20453;-72
2023/08/26 07:04:25;;;;;;;7.50;2.20;;;20.10;99.90;;;;;;5081409;28;20588;-71
2023/08/26 07:07:12;;;;;;;6.23;2.30;;;20.10;99.90;;;;;;5083094;28;20511;-72
2023/08/26 07:09:57;;;;;;;11.47;3.10;;;20.00;99.90;;;;;;5081580;28;21053;-72
2023/08/26 07:12:44;;;;;;;4.93;2.27;;;20.10;99.90;;;;;;5074361;28;20457;-72
2023/08/26 07:15:30;;;;;;;6.60;2.83;;;20.20;99.90;;;;;;5079014;28;20456;-72
2023/08/26 07:18:15;;;;;;;5.17;2.20;;;20.10;99.90;;;;;;5079737;28;20460;-72
2023/08/26 07:21:01;;;;;;;4.03;1.90;;;20.20;99.90;;;;;;5073232;28;20950;-72
2023/08/26 07:23:47;;;;;;;7.43;1.90;;;20.20;99.90;;;;;;5072953;28;21067;-71
2023/08/26 07:26:33;;;;;;;8.37;1.73;;;20.20;99.90;;;;;;5076081;28;20424;-71
2023/08/26 07:29:20;;;;;;;4.03;1.43;;;20.30;99.90;;;;;;5076758;28;20464;-73
2023/08/26 07:32:06;;;;;;;7.40;1.90;;;20.40;99.90;;;;;;5076604;28;20417;-73
2023/08/26 07:34:52;;;;;;;4.87;1.53;;;20.50;99.90;;;;;;5076378;28;20464;-72
2023/08/26 07:37:38;;;;;;;5.10;2.23;;;20.60;99.90;;;;;;5075314;28;20434;-72
2023/08/26 07:40:24;;;;;;;4.50;1.80;;;20.70;99.90;;;;;;5070707;28;20436;-72
2023/08/26 07:43:10;;;;;;;4.53;1.90;;;20.80;99.90;;;;;;5075310;28;20507;-72
2023/08/26 07:45:57;;;;;;;6.83;1.53;;;20.90;99.90;;;;;;5075868;28;20547;-73
2023/08/26 07:48:43;;;;;;;6.97;2.20;;;20.80;99.90;;;;;;5077274;28;20427;-72
2023/08/26 07:51:28;;;;;;;3.83;1.63;;;20.80;99.90;;;;;;5075511;28;20818;-72
2023/08/26 07:54:14;;;;;;;11.83;1.50;;;20.70;99.90;;;;;;5078608;28;20797;-73
2023/08/26 07:57:00;;;;;;;6.43;1.60;;;20.50;99.90;;;;;;5078505;28;20772;-72
2023/08/26 07:59:46;;;;;;;4.60;1.30;;;20.50;99.90;;;;;;5077449;28;21340;-73
2023/08/26 08:02:33;;;;;;;2.77;1.30;;;20.40;99.90;;;;;;5078753;28;20524;-72
2023/08/26 08:05:19;;;;;;;5.07;1.57;;;20.30;99.90;;;;;;5079082;28;20436;-72
2023/08/26 08:08:05;;;;;;;6.53;1.20;;;20.20;99.90;;;;;;5083204;28;20939;-70
2023/08/26 08:10:50;;;;;;;4.80;1.60;;;20.10;99.90;;;;;;5075961;28;20529;-72
2023/08/26 08:13:36;;;;;;;4.47;1.73;;;19.90;99.90;;;;;;5078744;28;20504;-72
2023/08/26 08:16:22;;;;;;;6.17;1.50;;;19.80;99.90;;;;;;5080675;28;20942;-72
2023/08/26 08:19:08;;;;;;;3.53;2.20;;;19.60;99.90;;;;;;5072254;28;20439;-72
2023/08/26 08:21:57;;;;;;;4.00;2.00;;;19.40;99.90;;;;;;5082646;28;20431;-72
2023/08/26 08:24:43;;;;;;;5.03;1.47;;;19.20;99.90;;;;;;5072972;28;20469;-72
2023/08/26 08:27:29;;;;;;;9.53;2.27;;;19.00;99.90;;;;;;5077215;28;21004;-73
2023/08/26 08:30:15;;;;;;;4.40;1.67;;;18.90;99.90;;;;;;5073140;28;20501;-72
2023/08/26 08:33:00;;;;;;;3.80;1.60;;;18.90;99.90;;;;;;5073915;28;20481;-72
2023/08/26 08:35:48;;;;;;;3.53;1.40;;;18.90;99.90;;;;;;5071485;28;20416;-71
2023/08/26 08:38:33;;;;;;;6.33;1.80;;;18.70;99.90;;;;;;5080846;28;20501;-71
2023/08/26 08:41:22;;;;;;;3.63;1.77;;;18.50;99.90;;;;;;5077664;28;20533;-71
2023/08/26 08:44:11;;;;;;;3.93;1.70;;;18.50;99.90;;;;;;5081041;28;20534;-72
2023/08/26 08:46:58;;;;;;;5.90;1.43;;;18.40;99.90;;;;;;5076551;28;20493;-71
2023/08/26 08:49:44;;;;;;;6.13;1.90;;;18.40;99.90;;;;;;5080746;28;20466;-72
2023/08/26 08:52:33;;;;;;;3.23;1.70;;;18.40;99.90;;;;;;5080777;28;20969;-72
2023/08/26 08:55:19;;;;;;;3.73;1.33;;;18.40;99.90;;;;;;5077056;28;20495;-72
2023/08/26 08:58:05;;;;;;;3.50;1.50;;;18.40;99.90;;;;;;5079165;28;20458;-72
2023/08/26 09:00:52;;;;;;;4.70;1.47;;;18.50;99.90;;;;;;5086796;28;20433;-72
2023/08/26 09:03:38;;;;;;;3.00;1.70;;;18.40;99.90;;;;;;5083452;28;20437;-69
2023/08/26 09:06:24;;;;;;;3.50;1.50;;;18.50;99.90;;;;;;5076401;28;20521;-71
2023/08/26 09:09:11;;;;;;;6.03;1.97;;;18.60;99.90;;;;;;5075790;28;20828;-73
2023/08/26 09:11:57;;;;;;;11.20;1.90;;;18.70;99.90;;;;;;5074632;28;22645;-71
2023/08/26 09:14:43;;;;;;;3.37;1.67;;;18.90;99.90;;;;;;5073932;28;20519;-72
2023/08/26 09:17:29;;;;;;;5.13;1.70;;;19.10;99.90;;;;;;5070892;28;20446;-71
2023/08/26 09:20:15;;;;;;;3.13;1.57;;;19.40;99.90;;;;;;5074543;28;20465;-70
2023/08/26 09:23:05;;;;;;;2.63;1.50;;;19.50;99.90;;;;;;5074992;28;20457;-72
2023/08/26 09:25:57;;;;;;;4.00;1.50;;;19.70;99.90;;;;;;5075139;28;20453;-72
2023/08/26 09:28:48;;;;;;;3.23;1.10;;;19.90;99.90;;;;;;5075086;28;20464;-71
2023/08/26 09:31:45;;;;;;;3.80;1.50;;;20.10;99.90;;;;;;5075234;28;20457;-72
2023/08/26 09:34:32;;;;;;;4.73;1.60;;;20.20;99.90;;;;;;5075883;28;20435;-70
2023/08/26 09:37:17;;;;;;;2.63;1.33;;;20.30;99.90;;;;;;5078150;28;20814;-72
2023/08/26 09:40:04;;;;;;;3.23;1.50;;;20.40;99.90;;;;;;5076969;28;20468;-72
2023/08/26 09:42:51;;;;;;;3.53;1.47;;;20.50;99.90;;;;;;5082466;28;20449;-72
2023/08/26 09:45:38;;;;;;;6.60;1.33;;;20.60;99.90;;;;;;5077815;28;20456;-73
2023/08/26 09:48:24;;;;;;;9.47;1.53;;;20.60;99.90;;;;;;5078233;28;20435;-72
2023/08/26 09:51:09;;;;;;;6.10;1.50;;;20.60;94.40;;;;;;5082222;28;20831;-72
2023/08/26 09:53:55;;;;;;;2.53;1.13;;;20.40;88.50;;;;;;5078371;28;20846;-71
2023/08/26 09:56:41;;;;;;;2.70;1.17;;;20.40;99.10;;;;;;5078741;28;20450;-72
2023/08/26 09:59:28;;;;;;;4.80;2.87;;;20.30;86.30;;;;;;5074839;28;20473;-72
2023/08/26 10:02:22;;;;;;;4.10;1.20;;;20.40;94.90;;;;;;5078112;28;20451;-72
2023/08/26 10:05:14;;;;;;;4.43;1.40;;;20.60;97.30;;;;;;5078432;28;20530;-72
2023/08/26 10:08:07;;;;;;;4.80;1.33;;;20.70;79.00;;;;;;5078713;28;20880;-71
2023/08/26 10:10:54;;;;;;;5.40;1.10;;;20.90;86.10;;;;;;5079551;28;20874;-72
2023/08/26 10:13:42;;;;;;;2.50;1.20;;;20.90;73.50;;;;;;5076348;28;20486;-72
2023/08/26 10:16:31;;;;;;;3.40;1.87;;;21.10;86.10;;;;;;5073491;28;21129;-72
2023/08/26 10:19:16;;;;;;;12.03;1.77;;;21.30;87.50;;;;;;5078316;28;20550;-73
2023/08/26 10:22:04;;;;;;;7.43;1.60;;;21.50;85.10;;;;;;5076204;28;20450;-73
2023/08/26 10:24:50;;;;;;;3.20;1.37;;;21.40;65.30;;;;;;5076589;28;20849;-71
2023/08/26 10:27:37;;;;;;;4.63;1.50;;;21.50;80.40;;;;;;5077094;28;20441;-70
2023/08/26 10:30:23;;;;;;;3.00;1.27;;;21.60;76.00;;;;;;5077584;28;20483;-71
2023/08/26 10:33:10;;;;;;;3.93;1.67;;;21.70;80.90;;;;;;5074503;28;20543;-71
2023/08/26 10:36:00;;;;;;;4.90;1.80;;;21.90;77.50;;;;;;5076385;28;20446;-72
2023/08/26 10:38:56;;;;;;;8.27;2.00;;;21.90;66.50;;;;;;5073795;28;20838;-71
2023/08/26 10:42:13;;;;;;;4.10;1.60;;;21.90;77.30;;;;;;5069141;28;20429;-70
2023/08/26 10:44:59;;;;;;;4.67;1.40;;;22.00;75.20;;;;;;5073834;28;20628;-71
2023/08/26 10:47:52;;;;;;;4.40;2.10;;;21.50;66.70;;;;;;5080085;28;20644;-72
2023/08/26 10:50:41;;;;;;;4.60;2.30;;;21.40;83.00;;;;;;5076556;28;20468;-70
2023/08/26 10:53:26;;;;;;;4.90;2.20;;;21.20;84.00;;;;;;5072479;28;20465;-72
2023/08/26 10:56:18;;;;;;;5.70;2.20;;;21.30;93.50;;;;;;5077883;28;20412;-72
2023/08/26 10:59:06;;;;;;;6.63;2.60;;;21.40;99.10;;;;;;5069925;28;20465;-73
2023/08/26 11:01:52;;;;;;;4.40;1.70;;;21.50;94.50;;;;;;5075973;28;21035;-73
2023/08/26 11:04:43;;;;;;;5.97;2.70;;;21.60;87.40;;;;;;5071825;28;22908;-72
2023/08/26 11:07:30;;;;;;;17.83;2.43;;;21.60;73.00;;;;;;5077166;28;20442;-72
2023/08/26 11:10:25;;;;;;;4.17;2.00;;;21.60;71.10;;;;;;5071025;28;20569;-72
2023/08/26 11:13:12;;;;;;;6.97;1.80;;;21.60;80.60;;;;;;5075728;28;20448;-72
2023/08/26 11:15:58;;;;;;;3.63;1.93;;;21.80;91.40;;;;;;5071191;28;20415;-71
2023/08/26 11:18:44;;;;;;;3.60;2.07;;;21.80;92.00;;;;;;5077488;28;20491;-72
2023/08/26 11:21:30;;;;;;;5.20;2.10;;;21.90;90.70;;;;;;5073251;28;20734;-72
2023/08/26 11:24:17;;;;;;;4.33;2.20;;;22.00;91.00;;;;;;5071544;28;20726;-71
2023/08/26 11:27:03;;;;;;;7.53;2.63;;;21.90;90.80;;;;;;5068243;28;20444;-71
2023/08/26 11:29:49;;;;;;;3.73;2.33;;;22.00;91.20;;;;;;5075641;28;20480;-72
2023/08/26 11:32:36;;;;;;;8.63;2.20;;;22.00;77.40;;;;;;5076133;28;20423;-71
2023/08/26 11:35:24;;;;;;;13.80;2.70;;;21.70;63.70;;;;;;5068809;28;20453;-71
2023/08/26 11:38:11;;;;;;;7.87;2.37;;;21.70;73.90;;;;;;5075221;28;20450;-73
2023/08/26 11:40:57;;;;;;;6.40;2.03;;;21.70;82.40;;;;;;5070984;28;20994;-72
2023/08/26 11:43:43;;;;;;;5.70;2.10;;;21.80;90.30;;;;;;5077576;28;20465;-72
2023/08/26 11:46:30;;;;;;;4.40;1.97;;;21.80;93.30;;;;;;5074809;28;20523;-71
2023/08/26 11:49:16;;;;;;;6.47;2.60;;;21.80;91.70;;;;;;5076020;28;20603;-72
2023/08/26 11:52:01;;;;;;;6.50;2.67;;;21.50;88.00;;;;;;5073535;28;20560;-71
2023/08/26 11:54:52;;;;;;;9.30;2.80;;;21.50;91.50;;;;;;5075569;28;20515;-71
2023/08/26 11:57:40;;;;;;;3.87;1.70;;;21.40;90.10;;;;;;5075026;28;20446;-72
2023/08/26 12:00:26;;;;;;;10.40;2.27;;;21.40;91.30;;;;;;5074091;28;20514;-72
2023/08/26 12:03:12;;;;;;;6.10;2.80;;;21.40;99.90;;;;;;5078787;28;20452;-72
2023/08/26 12:05:57;;;;;;;9.33;3.37;;;21.40;99.90;;;;;;5072929;28;20489;-72
2023/08/26 12:08:44;;;;;;;7.63;2.63;;;21.40;99.90;;;;;;5078510;28;21103;-71
2023/08/26 12:11:35;;;;;;;3.73;2.03;;;21.40;99.90;;;;;;5077945;28;20442;-72
2023/08/26 12:14:22;;;;;;;4.60;2.23;;;21.30;99.90;;;;;;5071743;28;20438;-72
2023/08/26 12:17:08;;;;;;;2.70;1.70;;;21.30;99.90;;;;;;5074164;28;20416;-71
2023/08/26 12:19:53;;;;;;;4.37;2.20;;;21.20;99.90;;;;;;5075359;28;20994;-72
2023/08/26 12:22:41;;;;;;;3.80;2.23;;;21.20;99.90;;;;;;5069077;28;20433;-71
2023/08/26 12:25:30;;;;;;;4.20;2.20;;;21.20;99.90;;;;;;5070516;28;20477;-72
2023/08/26 12:28:18;;;;;;;6.90;3.20;;;21.20;99.90;;;;;;5073573;28;20612;-72
2023/08/26 12:31:05;;;;;;;5.27;2.53;;;21.20;99.90;;;;;;5073869;28;20493;-72
2023/08/26 12:33:50;;;;;;;5.43;2.30;;;21.20;99.90;;;;;;5070431;28;20478;-71
2023/08/26 12:36:36;;;;;;;4.67;2.53;;;21.10;99.90;;;;;;5076797;28;20457;-72
2023/08/26 12:39:24;;;;;;;5.93;2.50;;;21.00;96.90;;;;;;5073412;28;20471;-71
2023/08/26 12:42:10;;;;;;;7.77;2.73;;;21.00;98.30;;;;;;5074681;28;20429;-72
2023/08/26 12:44:56;;;;;;;4.97;2.53;;;21.10;99.90;;;;;;5077874;28;20487;-71
2023/08/26 12:47:43;;;;;;;9.83;2.33;;;21.20;99.90;;;;;;5074982;28;21198;-71
2023/08/26 12:50:28;;;;;;;5.33;2.40;;;21.30;99.90;;;;;;5074330;28;20458;-72
2023/08/26 12:53:14;;;;;;;5.60;2.70;;;21.30;99.90;;;;;;5075565;28;20435;-71
2023/08/26 12:56:00;;;;;;;10.70;2.70;;;21.40;99.90;;;;;;5079038;28;20932;-71
2023/08/26 12:58:46;;;;;;;4.77;2.77;;;21.50;99.90;;;;;;5080017;28;21204;-72
2023/08/26 13:01:32;;;;;;;6.57;2.80;;;21.40;97.60;;;;;;5077080;28;20442;-71
2023/08/26 13:04:18;;;;;;;7.17;3.03;;;21.40;99.90;;;;;;5080091;28;20559;-72
2023/08/26 13:07:05;;;;;;;5.13;2.37;;;21.50;99.90;;;;;;5079716;28;20415;-71
2023/08/26 13:09:51;;;;;;;8.10;3.07;;;21.30;99.90;;;;;;5075093;28;20465;-72
2023/08/26 13:12:38;;;;;;;5.40;3.03;;;21.20;90.40;;;;;;5080751;28;20449;-72
2023/08/26 13:15:25;;;;;;;6.07;2.10;;;21.10;97.30;;;;;;5076161;28;21013;-72
2023/08/26 13:18:11;;;;;;;4.60;2.30;;;21.20;97.70;;;;;;5076957;28;20453;-72
2023/08/26 13:20:58;;;;;;;6.37;2.50;;;21.30;99.90;;;;;;5082728;28;20440;-72
2023/08/26 13:23:44;;;;;;;3.50;2.17;;;21.30;99.90;;;;;;5078436;28;20449;-72
2023/08/26 13:26:30;;;;;;;3.30;2.00;;;21.30;99.90;;;;;;5078924;28;20415;-72
2023/08/26 13:29:15;;;;;;;5.57;2.20;;;21.10;92.40;;;;;;5072751;28;20459;-72
2023/08/26 13:32:02;;;;;;;4.23;2.10;;;21.10;94.10;;;;;;5076012;28;20434;-71
2023/08/26 13:34:47;;;;;;;5.23;1.97;;;21.00;94.70;;;;;;5074670;28;20441;-72
2023/08/26 13:37:34;;;;;;;5.00;1.60;;;21.10;98.80;;;;;;5075773;28;20452;-71
2023/08/26 13:40:20;;;;;;;5.30;1.73;;;21.10;90.00;;;;;;5077842;28;20754;-72
2023/08/26 13:43:06;;;;;;;3.53;1.83;;;21.10;86.10;;;;;;5077180;28;20782;-72
2023/08/26 13:45:52;;;;;;;5.53;2.00;;;21.10;93.90;;;;;;5076631;28;20484;-71
2023/08/26 13:48:38;;;;;;;6.80;2.03;;;21.30;93.70;;;;;;5081577;28;20933;-72
2023/08/26 13:51:23;;;;;;;2.93;1.60;;;21.30;92.00;;;;;;5082242;28;20485;-72
2023/08/26 13:54:10;;;;;;;5.00;1.73;;;21.40;91.60;;;;;;5075448;28;20441;-72
2023/08/26 13:56:56;;;;;;;4.10;1.97;;;21.50;93.90;;;;;;5075182;28;23324;-73
2023/08/26 13:59:41;;;;;;;5.50;2.70;;;21.50;94.80;;;;;;5076921;28;20465;-71
2023/08/26 14:02:28;;;;;;;2.73;1.63;;;21.60;90.40;;;;;;5079664;28;20432;-71
2023/08/26 14:05:13;;;;;;;3.20;1.90;;;21.60;85.80;;;;;;5081373;28;20451;-71
2023/08/26 14:07:59;;;;;;;4.60;1.53;;;21.60;84.20;;;;;;5083191;28;20444;-71
2023/08/26 14:10:46;;;;;;;8.53;1.73;;;21.70;82.80;;;;;;5075193;28;20873;-71
2023/08/26 14:13:32;;;;;;;6.00;1.80;;;21.70;80.90;;;;;;5079700;28;20495;-71
2023/08/26 14:16:19;;;;;;;4.93;1.70;;;21.70;73.90;;;;;;5078820;28;20925;-71
2023/08/26 14:19:05;;;;;;;6.57;2.10;;;21.80;85.40;;;;;;5077174;28;20440;-71
2023/08/26 14:21:50;;;;;;;4.17;2.23;;;21.90;78.10;;;;;;5068406;28;20801;-71